sensor_id;sensor_type;location;lat;lon;timestamp;P1;durP1;ratioP1;P2;durP2;ratioP2
3601;SDS011;1815;50.950;6.920;2023-09-18T00:02:01;5.27;;;4.00;;
3601;SDS011;1815;50.950;6.920;2023-09-18T00:04:27;4.23;;;3.10;;
3601;SDS011;1815;50.950;6.920;2023-09-18T00:06:52;5.40;;;3.60;;
3601;SDS011;1815;50.950;6.920;2023-09-18T00:09:18;7.57;;;4.83;;
3601;SDS011;1815;50.950;6.920;2023-09-18T00:11:44;4.03;;;3.10;;
3601;SDS011;1815;50.950;6.920;2023-09-18T00:14:09;4.40;;;2.90;;
3601;SDS011;1815;50.950;6.920;2023-09-18T00:16:35;7.93;;;3.53;;
3601;SDS011;1815;50.950;6.920;2023-09-18T00:19:01;3.80;;;3.23;;
3601;SDS011;1815;50.950;6.920;2023-09-18T00:21:28;4.97;;;3.60;;
3601;SDS011;1815;50.950;6.920;2023-09-18T00:23:55;5.43;;;4.17;;
3601;SDS011;1815;50.950;6.920;2023-09-18T00:26:23;5.77;;;3.83;;
3601;SDS011;1815;50.950;6.920;2023-09-18T00:28:52;4.57;;;3.37;;
3601;SDS011;1815;50.950;6.920;2023-09-18T00:31:18;3.50;;;2.90;;
3601;SDS011;1815;50.950;6.920;2023-09-18T00:33:44;5.23;;;3.37;;
3601;SDS011;1815;50.950;6.920;2023-09-18T00:36:10;7.03;;;3.67;;
3601;SDS011;1815;50.950;6.920;2023-09-18T00:38:36;7.80;;;3.63;;
3601;SDS011;1815;50.950;6.920;2023-09-18T00:41:01;9.10;;;4.30;;
3601;SDS011;1815;50.950;6.920;2023-09-18T00:43:28;6.07;;;3.57;;
3601;SDS011;1815;50.950;6.920;2023-09-18T00:45:53;6.20;;;2.93;;
3601;SDS011;1815;50.950;6.920;2023-09-18T00:48:19;5.23;;;2.80;;
3601;SDS011;1815;50.950;6.920;2023-09-18T00:50:45;7.60;;;2.97;;
3601;SDS011;1815;50.950;6.920;2023-09-18T00:53:17;4.43;;;2.53;;
3601;SDS011;1815;50.950;6.920;2023-09-18T00:55:45;4.30;;;2.90;;
3601;SDS011;1815;50.950;6.920;2023-09-18T00:58:11;3.70;;;2.73;;
3601;SDS011;1815;50.950;6.920;2023-09-18T01:00:37;5.60;;;3.50;;
3601;SDS011;1815;50.950;6.920;2023-09-18T01:03:03;7.70;;;4.03;;
3601;SDS011;1815;50.950;6.920;2023-09-18T01:05:35;5.90;;;3.03;;
3601;SDS011;1815;50.950;6.920;2023-09-18T01:08:01;5.90;;;3.60;;
3601;SDS011;1815;50.950;6.920;2023-09-18T01:10:34;4.33;;;3.03;;
3601;SDS011;1815;50.950;6.920;2023-09-18T01:13:07;5.93;;;3.53;;
3601;SDS011;1815;50.950;6.920;2023-09-18T01:15:47;5.93;;;4.10;;
3601;SDS011;1815;50.950;6.920;2023-09-18T01:18:16;6.77;;;3.40;;
3601;SDS011;1815;50.950;6.920;2023-09-18T01:20:43;6.17;;;3.70;;
3601;SDS011;1815;50.950;6.920;2023-09-18T01:23:09;6.93;;;3.67;;
3601;SDS011;1815;50.950;6.920;2023-09-18T01:25:36;5.17;;;3.70;;
3601;SDS011;1815;50.950;6.920;2023-09-18T01:28:03;6.03;;;3.50;;
3601;SDS011;1815;50.950;6.920;2023-09-18T01:30:29;6.73;;;3.50;;
3601;SDS011;1815;50.950;6.920;2023-09-18T01:32:55;4.20;;;3.27;;
3601;SDS011;1815;50.950;6.920;2023-09-18T01:35:25;6.63;;;3.20;;
3601;SDS011;1815;50.950;6.920;2023-09-18T01:37:58;6.63;;;3.20;;
3601;SDS011;1815;50.950;6.920;2023-09-18T01:40:25;6.20;;;3.47;;
3601;SDS011;1815;50.950;6.920;2023-09-18T01:42:51;6.60;;;3.77;;
3601;SDS011;1815;50.950;6.920;2023-09-18T01:45:18;4.30;;;3.30;;
3601;SDS011;1815;50.950;6.920;2023-09-18T01:47:43;7.00;;;2.73;;
3601;SDS011;1815;50.950;6.920;2023-09-18T01:50:10;7.63;;;3.50;;
3601;SDS011;1815;50.950;6.920;2023-09-18T01:52:36;4.97;;;3.00;;
3601;SDS011;1815;50.950;6.920;2023-09-18T01:55:02;5.60;;;2.80;;
3601;SDS011;1815;50.950;6.920;2023-09-18T01:57:31;4.83;;;3.13;;
3601;SDS011;1815;50.950;6.920;2023-09-18T01:59:57;4.80;;;3.20;;
3601;SDS011;1815;50.950;6.920;2023-09-18T02:02:22;6.10;;;2.87;;
3601;SDS011;1815;50.950;6.920;2023-09-18T02:04:49;5.93;;;2.90;;
3601;SDS011;1815;50.950;6.920;2023-09-18T02:07:15;4.77;;;3.07;;
3601;SDS011;1815;50.950;6.920;2023-09-18T02:09:40;4.70;;;3.30;;
3601;SDS011;1815;50.950;6.920;2023-09-18T02:12:06;5.10;;;3.47;;
3601;SDS011;1815;50.950;6.920;2023-09-18T02:14:32;4.60;;;3.30;;
3601;SDS011;1815;50.950;6.920;2023-09-18T02:16:59;5.43;;;2.67;;
3601;SDS011;1815;50.950;6.920;2023-09-18T02:19:26;4.90;;;2.97;;
3601;SDS011;1815;50.950;6.920;2023-09-18T02:21:51;9.53;;;3.43;;
3601;SDS011;1815;50.950;6.920;2023-09-18T02:24:17;4.33;;;3.37;;
3601;SDS011;1815;50.950;6.920;2023-09-18T02:26:44;6.90;;;3.80;;
3601;SDS011;1815;50.950;6.920;2023-09-18T02:29:10;6.93;;;3.23;;
3601;SDS011;1815;50.950;6.920;2023-09-18T02:31:38;7.83;;;3.27;;
3601;SDS011;1815;50.950;6.920;2023-09-18T02:34:04;12.27;;;4.73;;
3601;SDS011;1815;50.950;6.920;2023-09-18T02:36:30;5.10;;;3.67;;
3601;SDS011;1815;50.950;6.920;2023-09-18T02:38:56;5.67;;;3.40;;
3601;SDS011;1815;50.950;6.920;2023-09-18T02:41:21;5.53;;;3.23;;
3601;SDS011;1815;50.950;6.920;2023-09-18T02:43:47;7.93;;;3.77;;
3601;SDS011;1815;50.950;6.920;2023-09-18T02:46:13;6.70;;;3.67;;
3601;SDS011;1815;50.950;6.920;2023-09-18T02:48:38;4.20;;;3.13;;
3601;SDS011;1815;50.950;6.920;2023-09-18T02:51:04;4.80;;;3.90;;
3601;SDS011;1815;50.950;6.920;2023-09-18T02:53:30;6.20;;;4.03;;
3601;SDS011;1815;50.950;6.920;2023-09-18T02:55:57;6.50;;;3.43;;
3601;SDS011;1815;50.950;6.920;2023-09-18T02:58:24;4.97;;;4.23;;
3601;SDS011;1815;50.950;6.920;2023-09-18T03:00:52;7.10;;;3.10;;
3601;SDS011;1815;50.950;6.920;2023-09-18T03:03:29;6.57;;;3.40;;
3601;SDS011;1815;50.950;6.920;2023-09-18T03:06:03;4.43;;;3.50;;
3601;SDS011;1815;50.950;6.920;2023-09-18T03:08:30;5.90;;;3.30;;
3601;SDS011;1815;50.950;6.920;2023-09-18T03:10:57;6.17;;;3.20;;
3601;SDS011;1815;50.950;6.920;2023-09-18T03:13:23;7.50;;;3.43;;
3601;SDS011;1815;50.950;6.920;2023-09-18T03:15:49;6.33;;;4.43;;
3601;SDS011;1815;50.950;6.920;2023-09-18T03:18:15;4.77;;;4.00;;
3601;SDS011;1815;50.950;6.920;2023-09-18T03:20:41;4.20;;;3.03;;
3601;SDS011;1815;50.950;6.920;2023-09-18T03:23:08;4.90;;;3.17;;
3601;SDS011;1815;50.950;6.920;2023-09-18T03:25:34;4.87;;;3.37;;
3601;SDS011;1815;50.950;6.920;2023-09-18T03:28:02;5.40;;;3.40;;
3601;SDS011;1815;50.950;6.920;2023-09-18T03:30:30;4.70;;;3.60;;
3601;SDS011;1815;50.950;6.920;2023-09-18T03:32:56;5.57;;;3.47;;
3601;SDS011;1815;50.950;6.920;2023-09-18T03:35:23;4.20;;;3.80;;
3601;SDS011;1815;50.950;6.920;2023-09-18T03:37:50;5.40;;;3.63;;
3601;SDS011;1815;50.950;6.920;2023-09-18T03:40:18;6.20;;;3.70;;
3601;SDS011;1815;50.950;6.920;2023-09-18T03:42:44;4.57;;;3.50;;
3601;SDS011;1815;50.950;6.920;2023-09-18T03:45:10;6.17;;;3.33;;
3601;SDS011;1815;50.950;6.920;2023-09-18T03:47:38;4.73;;;3.30;;
3601;SDS011;1815;50.950;6.920;2023-09-18T03:50:08;6.23;;;3.03;;
3601;SDS011;1815;50.950;6.920;2023-09-18T03:52:34;6.50;;;3.60;;
3601;SDS011;1815;50.950;6.920;2023-09-18T03:55:00;5.80;;;3.20;;
3601;SDS011;1815;50.950;6.920;2023-09-18T03:57:26;6.83;;;2.70;;
3601;SDS011;1815;50.950;6.920;2023-09-18T03:59:52;4.37;;;2.67;;
3601;SDS011;1815;50.950;6.920;2023-09-18T04:02:18;6.60;;;2.67;;
3601;SDS011;1815;50.950;6.920;2023-09-18T04:04:44;7.03;;;2.67;;
3601;SDS011;1815;50.950;6.920;2023-09-18T04:07:09;11.10;;;3.20;;
3601;SDS011;1815;50.950;6.920;2023-09-18T04:09:36;10.10;;;3.37;;
3601;SDS011;1815;50.950;6.920;2023-09-18T04:12:03;7.90;;;4.00;;
3601;SDS011;1815;50.950;6.920;2023-09-18T04:14:31;6.70;;;2.80;;
3601;SDS011;1815;50.950;6.920;2023-09-18T04:16:57;5.47;;;2.90;;
3601;SDS011;1815;50.950;6.920;2023-09-18T04:19:23;6.20;;;2.50;;
3601;SDS011;1815;50.950;6.920;2023-09-18T04:21:49;9.80;;;3.10;;
3601;SDS011;1815;50.950;6.920;2023-09-18T04:24:14;10.53;;;3.57;;
3601;SDS011;1815;50.950;6.920;2023-09-18T04:26:40;5.43;;;2.37;;
3601;SDS011;1815;50.950;6.920;2023-09-18T04:29:06;8.33;;;3.57;;
3601;SDS011;1815;50.950;6.920;2023-09-18T04:31:32;5.87;;;3.23;;
3601;SDS011;1815;50.950;6.920;2023-09-18T04:33:58;6.77;;;2.53;;
3601;SDS011;1815;50.950;6.920;2023-09-18T04:36:24;5.87;;;2.57;;
3601;SDS011;1815;50.950;6.920;2023-09-18T04:38:50;6.23;;;2.90;;
3601;SDS011;1815;50.950;6.920;2023-09-18T04:41:16;5.83;;;3.27;;
3601;SDS011;1815;50.950;6.920;2023-09-18T04:43:42;7.03;;;3.27;;
3601;SDS011;1815;50.950;6.920;2023-09-18T04:46:08;5.90;;;3.07;;
3601;SDS011;1815;50.950;6.920;2023-09-18T04:48:35;9.33;;;3.97;;
3601;SDS011;1815;50.950;6.920;2023-09-18T04:51:01;5.67;;;2.90;;
3601;SDS011;1815;50.950;6.920;2023-09-18T04:53:29;12.20;;;3.37;;
3601;SDS011;1815;50.950;6.920;2023-09-18T04:55:56;6.83;;;3.33;;
3601;SDS011;1815;50.950;6.920;2023-09-18T04:58:22;8.10;;;2.90;;
3601;SDS011;1815;50.950;6.920;2023-09-18T05:00:54;7.80;;;2.70;;
3601;SDS011;1815;50.950;6.920;2023-09-18T05:03:20;7.13;;;2.77;;
3601;SDS011;1815;50.950;6.920;2023-09-18T05:05:49;9.67;;;4.27;;
3601;SDS011;1815;50.950;6.920;2023-09-18T05:08:15;6.23;;;2.90;;
3601;SDS011;1815;50.950;6.920;2023-09-18T05:10:41;6.00;;;2.83;;
3601;SDS011;1815;50.950;6.920;2023-09-18T05:13:08;5.93;;;2.30;;
3601;SDS011;1815;50.950;6.920;2023-09-18T05:15:37;5.80;;;2.50;;
3601;SDS011;1815;50.950;6.920;2023-09-18T05:18:02;5.43;;;2.47;;
3601;SDS011;1815;50.950;6.920;2023-09-18T05:20:31;6.10;;;2.60;;
3601;SDS011;1815;50.950;6.920;2023-09-18T05:22:59;4.10;;;2.63;;
3601;SDS011;1815;50.950;6.920;2023-09-18T05:25:27;9.33;;;2.40;;
3601;SDS011;1815;50.950;6.920;2023-09-18T05:27:57;7.17;;;2.73;;
3601;SDS011;1815;50.950;6.920;2023-09-18T05:30:34;6.37;;;2.93;;
3601;SDS011;1815;50.950;6.920;2023-09-18T05:33:03;6.13;;;2.83;;
3601;SDS011;1815;50.950;6.920;2023-09-18T05:35:33;5.53;;;2.10;;
3601;SDS011;1815;50.950;6.920;2023-09-18T05:38:02;6.80;;;2.70;;
3601;SDS011;1815;50.950;6.920;2023-09-18T05:40:28;3.93;;;2.10;;
3601;SDS011;1815;50.950;6.920;2023-09-18T05:42:55;7.67;;;2.80;;
3601;SDS011;1815;50.950;6.920;2023-09-18T05:45:21;9.10;;;3.43;;
3601;SDS011;1815;50.950;6.920;2023-09-18T05:47:47;8.20;;;2.47;;
3601;SDS011;1815;50.950;6.920;2023-09-18T05:50:13;4.37;;;2.00;;
3601;SDS011;1815;50.950;6.920;2023-09-18T05:52:42;6.47;;;2.63;;
3601;SDS011;1815;50.950;6.920;2023-09-18T05:55:09;6.50;;;2.70;;
3601;SDS011;1815;50.950;6.920;2023-09-18T05:57:35;4.10;;;2.27;;
3601;SDS011;1815;50.950;6.920;2023-09-18T06:00:02;6.00;;;2.87;;
3601;SDS011;1815;50.950;6.920;2023-09-18T06:02:37;7.50;;;2.83;;
3601;SDS011;1815;50.950;6.920;2023-09-18T06:05:11;5.50;;;2.70;;
3601;SDS011;1815;50.950;6.920;2023-09-18T06:07:37;6.77;;;2.47;;
3601;SDS011;1815;50.950;6.920;2023-09-18T06:10:04;5.30;;;2.63;;
3601;SDS011;1815;50.950;6.920;2023-09-18T06:12:30;2.80;;;1.60;;
3601;SDS011;1815;50.950;6.920;2023-09-18T06:14:55;5.30;;;1.70;;
3601;SDS011;1815;50.950;6.920;2023-09-18T06:17:21;3.10;;;1.40;;
3601;SDS011;1815;50.950;6.920;2023-09-18T06:20:20;8.80;;;1.47;;
3601;SDS011;1815;50.950;6.920;2023-09-18T06:23:06;3.43;;;1.47;;
3601;SDS011;1815;50.950;6.920;2023-09-18T06:25:32;4.73;;;2.03;;
3601;SDS011;1815;50.950;6.920;2023-09-18T06:28:00;3.40;;;1.50;;
3601;SDS011;1815;50.950;6.920;2023-09-18T06:30:29;5.53;;;1.83;;
3601;SDS011;1815;50.950;6.920;2023-09-18T06:32:56;4.77;;;1.70;;
3601;SDS011;1815;50.950;6.920;2023-09-18T06:35:22;2.97;;;1.50;;
3601;SDS011;1815;50.950;6.920;2023-09-18T06:37:47;5.50;;;1.90;;
3601;SDS011;1815;50.950;6.920;2023-09-18T06:40:13;3.20;;;1.67;;
3601;SDS011;1815;50.950;6.920;2023-09-18T06:42:39;3.00;;;1.53;;
3601;SDS011;1815;50.950;6.920;2023-09-18T06:45:05;4.03;;;1.53;;
3601;SDS011;1815;50.950;6.920;2023-09-18T06:47:32;5.73;;;1.47;;
3601;SDS011;1815;50.950;6.920;2023-09-18T06:49:58;2.67;;;1.70;;
3601;SDS011;1815;50.950;6.920;2023-09-18T06:52:26;5.73;;;1.40;;
3601;SDS011;1815;50.950;6.920;2023-09-18T06:54:53;4.90;;;1.40;;
3601;SDS011;1815;50.950;6.920;2023-09-18T06:57:19;4.67;;;1.90;;
3601;SDS011;1815;50.950;6.920;2023-09-18T06:59:46;4.90;;;1.20;;
3601;SDS011;1815;50.950;6.920;2023-09-18T07:02:15;5.73;;;1.57;;
3601;SDS011;1815;50.950;6.920;2023-09-18T07:04:41;3.90;;;1.20;;
3601;SDS011;1815;50.950;6.920;2023-09-18T07:07:11;4.57;;;1.20;;
3601;SDS011;1815;50.950;6.920;2023-09-18T07:09:39;2.07;;;1.00;;
3601;SDS011;1815;50.950;6.920;2023-09-18T07:12:08;4.60;;;1.50;;
3601;SDS011;1815;50.950;6.920;2023-09-18T07:14:35;3.40;;;1.20;;
3601;SDS011;1815;50.950;6.920;2023-09-18T07:17:01;4.77;;;1.10;;
3601;SDS011;1815;50.950;6.920;2023-09-18T07:19:27;3.10;;;1.20;;
3601;SDS011;1815;50.950;6.920;2023-09-18T07:21:53;4.87;;;1.13;;
3601;SDS011;1815;50.950;6.920;2023-09-18T07:24:18;3.87;;;1.00;;
3601;SDS011;1815;50.950;6.920;2023-09-18T07:26:46;2.37;;;1.07;;
3601;SDS011;1815;50.950;6.920;2023-09-18T07:29:14;2.83;;;1.20;;
3601;SDS011;1815;50.950;6.920;2023-09-18T07:31:41;1.80;;;1.00;;
3601;SDS011;1815;50.950;6.920;2023-09-18T07:34:08;2.77;;;0.97;;
3601;SDS011;1815;50.950;6.920;2023-09-18T07:36:34;3.07;;;0.97;;
3601;SDS011;1815;50.950;6.920;2023-09-18T07:39:03;2.23;;;0.97;;
3601;SDS011;1815;50.950;6.920;2023-09-18T07:41:29;3.50;;;1.83;;
3601;SDS011;1815;50.950;6.920;2023-09-18T07:43:56;2.93;;;0.97;;
3601;SDS011;1815;50.950;6.920;2023-09-18T07:46:23;3.10;;;1.07;;
3601;SDS011;1815;50.950;6.920;2023-09-18T07:48:49;2.50;;;1.00;;
3601;SDS011;1815;50.950;6.920;2023-09-18T07:51:15;2.10;;;0.80;;
3601;SDS011;1815;50.950;6.920;2023-09-18T07:53:41;1.90;;;0.80;;
3601;SDS011;1815;50.950;6.920;2023-09-18T07:56:08;2.33;;;0.90;;
3601;SDS011;1815;50.950;6.920;2023-09-18T07:58:34;5.47;;;1.33;;
3601;SDS011;1815;50.950;6.920;2023-09-18T08:01:03;3.37;;;1.10;;
3601;SDS011;1815;50.950;6.920;2023-09-18T08:03:30;2.10;;;0.90;;
3601;SDS011;1815;50.950;6.920;2023-09-18T08:05:59;2.40;;;0.90;;
3601;SDS011;1815;50.950;6.920;2023-09-18T08:08:26;3.03;;;0.90;;
3601;SDS011;1815;50.950;6.920;2023-09-18T08:10:52;3.07;;;0.90;;
3601;SDS011;1815;50.950;6.920;2023-09-18T08:13:18;2.93;;;0.73;;
3601;SDS011;1815;50.950;6.920;2023-09-18T08:15:49;2.60;;;0.70;;
3601;SDS011;1815;50.950;6.920;2023-09-18T08:18:16;3.70;;;0.77;;
3601;SDS011;1815;50.950;6.920;2023-09-18T08:20:42;2.17;;;0.87;;
3601;SDS011;1815;50.950;6.920;2023-09-18T08:23:08;8.43;;;1.40;;
3601;SDS011;1815;50.950;6.920;2023-09-18T08:25:35;3.00;;;1.20;;
3601;SDS011;1815;50.950;6.920;2023-09-18T08:28:00;3.00;;;1.20;;
3601;SDS011;1815;50.950;6.920;2023-09-18T08:30:28;3.00;;;1.00;;
3601;SDS011;1815;50.950;6.920;2023-09-18T08:32:54;2.90;;;0.90;;
3601;SDS011;1815;50.950;6.920;2023-09-18T08:35:20;4.47;;;1.00;;
3601;SDS011;1815;50.950;6.920;2023-09-18T08:37:47;3.70;;;1.03;;
3601;SDS011;1815;50.950;6.920;2023-09-18T08:40:13;4.10;;;1.20;;
3601;SDS011;1815;50.950;6.920;2023-09-18T08:42:42;3.83;;;1.00;;
3601;SDS011;1815;50.950;6.920;2023-09-18T08:45:11;5.17;;;1.00;;
3601;SDS011;1815;50.950;6.920;2023-09-18T08:47:59;1.90;;;0.70;;
3601;SDS011;1815;50.950;6.920;2023-09-18T08:50:26;3.67;;;1.07;;
3601;SDS011;1815;50.950;6.920;2023-09-18T08:52:53;1.83;;;0.70;;
3601;SDS011;1815;50.950;6.920;2023-09-18T08:55:20;2.63;;;0.93;;
3601;SDS011;1815;50.950;6.920;2023-09-18T08:57:46;5.40;;;1.23;;
3601;SDS011;1815;50.950;6.920;2023-09-18T09:00:12;1.70;;;0.70;;
3601;SDS011;1815;50.950;6.920;2023-09-18T09:02:43;2.57;;;0.80;;
3601;SDS011;1815;50.950;6.920;2023-09-18T09:05:09;2.97;;;1.33;;
3601;SDS011;1815;50.950;6.920;2023-09-18T09:07:35;1.80;;;0.70;;
3601;SDS011;1815;50.950;6.920;2023-09-18T09:10:01;1.60;;;0.70;;
3601;SDS011;1815;50.950;6.920;2023-09-18T09:15:15;3.10;;;0.80;;
3601;SDS011;1815;50.950;6.920;2023-09-18T09:17:41;2.50;;;0.70;;
3601;SDS011;1815;50.950;6.920;2023-09-18T09:20:11;4.30;;;1.00;;
3601;SDS011;1815;50.950;6.920;2023-09-18T09:22:38;1.97;;;0.80;;
3601;SDS011;1815;50.950;6.920;2023-09-18T09:25:27;2.43;;;0.80;;
3601;SDS011;1815;50.950;6.920;2023-09-18T09:28:05;4.17;;;1.20;;
3601;SDS011;1815;50.950;6.920;2023-09-18T09:30:33;2.17;;;0.90;;
3601;SDS011;1815;50.950;6.920;2023-09-18T09:33:02;1.60;;;0.70;;
3601;SDS011;1815;50.950;6.920;2023-09-18T09:35:31;3.00;;;0.80;;
3601;SDS011;1815;50.950;6.920;2023-09-18T09:38:16;2.10;;;0.80;;
3601;SDS011;1815;50.950;6.920;2023-09-18T09:40:45;1.40;;;0.70;;
3601;SDS011;1815;50.950;6.920;2023-09-18T09:43:11;1.90;;;0.60;;
3601;SDS011;1815;50.950;6.920;2023-09-18T09:45:39;3.00;;;0.77;;
3601;SDS011;1815;50.950;6.920;2023-09-18T09:48:06;1.80;;;0.77;;
3601;SDS011;1815;50.950;6.920;2023-09-18T09:50:33;4.80;;;1.17;;
3601;SDS011;1815;50.950;6.920;2023-09-18T09:53:11;2.87;;;1.00;;
3601;SDS011;1815;50.950;6.920;2023-09-18T09:55:39;4.20;;;0.80;;
3601;SDS011;1815;50.950;6.920;2023-09-18T09:58:06;4.00;;;1.23;;
3601;SDS011;1815;50.950;6.920;2023-09-18T10:00:38;2.43;;;0.90;;
3601;SDS011;1815;50.950;6.920;2023-09-18T10:03:22;3.30;;;1.63;;
3601;SDS011;1815;50.950;6.920;2023-09-18T10:05:50;2.87;;;0.80;;
3601;SDS011;1815;50.950;6.920;2023-09-18T10:08:25;3.00;;;1.20;;
3601;SDS011;1815;50.950;6.920;2023-09-18T10:10:53;2.20;;;1.00;;
3601;SDS011;1815;50.950;6.920;2023-09-18T10:16:14;2.97;;;0.80;;
3601;SDS011;1815;50.950;6.920;2023-09-18T10:18:51;2.80;;;0.77;;
3601;SDS011;1815;50.950;6.920;2023-09-18T10:21:41;3.73;;;1.00;;
3601;SDS011;1815;50.950;6.920;2023-09-18T10:24:38;1.80;;;0.80;;
3601;SDS011;1815;50.950;6.920;2023-09-18T10:27:06;4.20;;;0.77;;
3601;SDS011;1815;50.950;6.920;2023-09-18T10:29:34;2.87;;;0.73;;
3601;SDS011;1815;50.950;6.920;2023-09-18T10:32:05;3.10;;;0.80;;
3601;SDS011;1815;50.950;6.920;2023-09-18T10:34:34;3.37;;;0.70;;
3601;SDS011;1815;50.950;6.920;2023-09-18T10:37:02;1.70;;;0.60;;
3601;SDS011;1815;50.950;6.920;2023-09-18T10:39:36;2.27;;;0.60;;
3601;SDS011;1815;50.950;6.920;2023-09-18T10:42:04;2.20;;;0.50;;
3601;SDS011;1815;50.950;6.920;2023-09-18T10:44:32;1.70;;;0.60;;
3601;SDS011;1815;50.950;6.920;2023-09-18T10:46:58;1.67;;;0.60;;
3601;SDS011;1815;50.950;6.920;2023-09-18T10:49:26;1.40;;;0.70;;
3601;SDS011;1815;50.950;6.920;2023-09-18T10:51:55;1.50;;;0.50;;
3601;SDS011;1815;50.950;6.920;2023-09-18T10:54:22;1.50;;;0.60;;
3601;SDS011;1815;50.950;6.920;2023-09-18T10:56:49;1.83;;;0.60;;
3601;SDS011;1815;50.950;6.920;2023-09-18T10:59:15;1.70;;;0.57;;
3601;SDS011;1815;50.950;6.920;2023-09-18T11:01:42;1.53;;;0.70;;
3601;SDS011;1815;50.950;6.920;2023-09-18T11:04:09;2.23;;;0.70;;
3601;SDS011;1815;50.950;6.920;2023-09-18T11:09:46;2.37;;;0.60;;
3601;SDS011;1815;50.950;6.920;2023-09-18T11:12:14;1.50;;;0.50;;
3601;SDS011;1815;50.950;6.920;2023-09-18T11:14:49;1.40;;;0.50;;
3601;SDS011;1815;50.950;6.920;2023-09-18T11:17:35;1.60;;;0.53;;
3601;SDS011;1815;50.950;6.920;2023-09-18T11:22:32;2.60;;;0.67;;
3601;SDS011;1815;50.950;6.920;2023-09-18T11:27:59;1.50;;;0.80;;
3601;SDS011;1815;50.950;6.920;2023-09-18T11:30:27;1.60;;;0.60;;
3601;SDS011;1815;50.950;6.920;2023-09-18T11:32:54;4.53;;;0.80;;
3601;SDS011;1815;50.950;6.920;2023-09-18T11:35:20;1.63;;;0.60;;
3601;SDS011;1815;50.950;6.920;2023-09-18T11:37:47;1.60;;;0.60;;
3601;SDS011;1815;50.950;6.920;2023-09-18T11:40:31;1.80;;;0.60;;
3601;SDS011;1815;50.950;6.920;2023-09-18T11:45:58;4.57;;;0.70;;
3601;SDS011;1815;50.950;6.920;2023-09-18T11:48:26;1.83;;;0.87;;
3601;SDS011;1815;50.950;6.920;2023-09-18T11:50:54;3.53;;;0.70;;
3601;SDS011;1815;50.950;6.920;2023-09-18T11:53:28;2.10;;;0.70;;
3601;SDS011;1815;50.950;6.920;2023-09-18T11:55:58;2.20;;;0.87;;
3601;SDS011;1815;50.950;6.920;2023-09-18T11:58:28;3.03;;;1.13;;
3601;SDS011;1815;50.950;6.920;2023-09-18T12:00:54;3.10;;;0.73;;
3601;SDS011;1815;50.950;6.920;2023-09-18T12:03:21;1.70;;;0.70;;
3601;SDS011;1815;50.950;6.920;2023-09-18T12:06:01;2.53;;;0.60;;
3601;SDS011;1815;50.950;6.920;2023-09-18T12:08:30;1.40;;;0.60;;
3601;SDS011;1815;50.950;6.920;2023-09-18T12:10:57;1.50;;;0.73;;
3601;SDS011;1815;50.950;6.920;2023-09-18T12:13:27;2.60;;;0.70;;
3601;SDS011;1815;50.950;6.920;2023-09-18T12:16:02;2.47;;;1.30;;
3601;SDS011;1815;50.950;6.920;2023-09-18T12:18:31;2.00;;;1.00;;
3601;SDS011;1815;50.950;6.920;2023-09-18T12:21:05;2.13;;;1.23;;
3601;SDS011;1815;50.950;6.920;2023-09-18T12:23:40;1.70;;;0.70;;
3601;SDS011;1815;50.950;6.920;2023-09-18T12:26:11;2.07;;;0.70;;
3601;SDS011;1815;50.950;6.920;2023-09-18T12:28:41;2.17;;;0.63;;
3601;SDS011;1815;50.950;6.920;2023-09-18T12:31:11;1.63;;;0.70;;
3601;SDS011;1815;50.950;6.920;2023-09-18T12:33:39;1.70;;;0.90;;
3601;SDS011;1815;50.950;6.920;2023-09-18T12:36:06;2.63;;;1.20;;
3601;SDS011;1815;50.950;6.920;2023-09-18T12:38:33;1.70;;;0.70;;
3601;SDS011;1815;50.950;6.920;2023-09-18T12:40:59;1.70;;;0.70;;
3601;SDS011;1815;50.950;6.920;2023-09-18T12:43:38;1.83;;;0.90;;
3601;SDS011;1815;50.950;6.920;2023-09-18T12:46:08;1.77;;;0.70;;
3601;SDS011;1815;50.950;6.920;2023-09-18T12:48:38;1.77;;;0.83;;
3601;SDS011;1815;50.950;6.920;2023-09-18T12:51:10;2.00;;;0.63;;
3601;SDS011;1815;50.950;6.920;2023-09-18T12:53:36;1.70;;;0.70;;
3601;SDS011;1815;50.950;6.920;2023-09-18T12:56:09;1.77;;;0.60;;
3601;SDS011;1815;50.950;6.920;2023-09-18T12:58:38;1.80;;;0.80;;
3601;SDS011;1815;50.950;6.920;2023-09-18T13:01:05;1.60;;;0.87;;
3601;SDS011;1815;50.950;6.920;2023-09-18T13:03:41;2.33;;;0.80;;
3601;SDS011;1815;50.950;6.920;2023-09-18T13:06:12;4.40;;;0.70;;
3601;SDS011;1815;50.950;6.920;2023-09-18T13:08:42;2.63;;;1.10;;
3601;SDS011;1815;50.950;6.920;2023-09-18T13:11:08;2.53;;;1.13;;
3601;SDS011;1815;50.950;6.920;2023-09-18T13:13:36;1.90;;;0.87;;
3601;SDS011;1815;50.950;6.920;2023-09-18T13:16:04;1.80;;;1.00;;
3601;SDS011;1815;50.950;6.920;2023-09-18T13:18:31;2.47;;;0.80;;
3601;SDS011;1815;50.950;6.920;2023-09-18T13:20:57;2.40;;;1.03;;
3601;SDS011;1815;50.950;6.920;2023-09-18T13:23:32;2.00;;;0.70;;
3601;SDS011;1815;50.950;6.920;2023-09-18T13:26:04;2.20;;;0.73;;
3601;SDS011;1815;50.950;6.920;2023-09-18T13:28:30;2.80;;;1.00;;
3601;SDS011;1815;50.950;6.920;2023-09-18T13:30:59;1.50;;;0.60;;
3601;SDS011;1815;50.950;6.920;2023-09-18T13:33:25;1.80;;;0.70;;
3601;SDS011;1815;50.950;6.920;2023-09-18T13:35:51;2.10;;;0.80;;
3601;SDS011;1815;50.950;6.920;2023-09-18T13:38:18;2.00;;;0.70;;
3601;SDS011;1815;50.950;6.920;2023-09-18T13:40:46;2.80;;;0.70;;
3601;SDS011;1815;50.950;6.920;2023-09-18T13:43:15;2.33;;;0.80;;
3601;SDS011;1815;50.950;6.920;2023-09-18T13:45:43;1.53;;;0.80;;
3601;SDS011;1815;50.950;6.920;2023-09-18T13:48:09;2.23;;;0.70;;
3601;SDS011;1815;50.950;6.920;2023-09-18T13:50:36;1.70;;;0.60;;
3601;SDS011;1815;50.950;6.920;2023-09-18T13:53:03;1.57;;;0.73;;
3601;SDS011;1815;50.950;6.920;2023-09-18T13:55:31;1.83;;;0.80;;
3601;SDS011;1815;50.950;6.920;2023-09-18T13:57:57;2.63;;;0.70;;
3601;SDS011;1815;50.950;6.920;2023-09-18T14:00:23;2.70;;;0.77;;
3601;SDS011;1815;50.950;6.920;2023-09-18T14:02:50;1.57;;;0.80;;
3601;SDS011;1815;50.950;6.920;2023-09-18T14:05:16;2.10;;;0.70;;
3601;SDS011;1815;50.950;6.920;2023-09-18T14:07:42;1.50;;;0.70;;
3601;SDS011;1815;50.950;6.920;2023-09-18T14:10:08;2.50;;;0.80;;
3601;SDS011;1815;50.950;6.920;2023-09-18T14:12:35;2.47;;;0.70;;
3601;SDS011;1815;50.950;6.920;2023-09-18T14:15:03;2.60;;;0.60;;
3601;SDS011;1815;50.950;6.920;2023-09-18T14:17:32;1.53;;;0.70;;
3601;SDS011;1815;50.950;6.920;2023-09-18T14:19:59;1.60;;;0.73;;
3601;SDS011;1815;50.950;6.920;2023-09-18T14:22:25;2.47;;;0.90;;
3601;SDS011;1815;50.950;6.920;2023-09-18T14:24:51;3.20;;;0.80;;
3601;SDS011;1815;50.950;6.920;2023-09-18T14:27:17;2.03;;;0.70;;
3601;SDS011;1815;50.950;6.920;2023-09-18T14:29:43;1.60;;;0.80;;
3601;SDS011;1815;50.950;6.920;2023-09-18T14:32:08;2.47;;;0.80;;
3601;SDS011;1815;50.950;6.920;2023-09-18T14:34:34;3.60;;;0.90;;
3601;SDS011;1815;50.950;6.920;2023-09-18T14:37:03;1.97;;;0.87;;
3601;SDS011;1815;50.950;6.920;2023-09-18T14:39:30;4.40;;;0.70;;
3601;SDS011;1815;50.950;6.920;2023-09-18T14:41:56;2.23;;;0.90;;
3601;SDS011;1815;50.950;6.920;2023-09-18T14:44:22;2.57;;;0.70;;
3601;SDS011;1815;50.950;6.920;2023-09-18T14:46:48;1.53;;;0.60;;
3601;SDS011;1815;50.950;6.920;2023-09-18T14:49:14;1.90;;;0.70;;
3601;SDS011;1815;50.950;6.920;2023-09-18T14:51:40;1.90;;;0.70;;
3601;SDS011;1815;50.950;6.920;2023-09-18T14:54:06;1.70;;;0.70;;
3601;SDS011;1815;50.950;6.920;2023-09-18T14:56:33;4.07;;;1.00;;
3601;SDS011;1815;50.950;6.920;2023-09-18T14:59:01;1.70;;;0.80;;
3601;SDS011;1815;50.950;6.920;2023-09-18T15:01:28;2.73;;;0.80;;
3601;SDS011;1815;50.950;6.920;2023-09-18T15:03:54;2.27;;;0.70;;
3601;SDS011;1815;50.950;6.920;2023-09-18T15:06:20;1.90;;;0.80;;
3601;SDS011;1815;50.950;6.920;2023-09-18T15:08:46;2.23;;;0.70;;
3601;SDS011;1815;50.950;6.920;2023-09-18T15:11:12;5.53;;;1.20;;
3601;SDS011;1815;50.950;6.920;2023-09-18T15:13:42;1.90;;;0.73;;
3601;SDS011;1815;50.950;6.920;2023-09-18T15:16:08;5.27;;;0.80;;
3601;SDS011;1815;50.950;6.920;2023-09-18T15:18:34;1.57;;;0.73;;
3601;SDS011;1815;50.950;6.920;2023-09-18T15:21:00;3.07;;;0.90;;
3601;SDS011;1815;50.950;6.920;2023-09-18T15:23:27;2.07;;;0.83;;
3601;SDS011;1815;50.950;6.920;2023-09-18T15:25:54;2.03;;;0.80;;
3601;SDS011;1815;50.950;6.920;2023-09-18T15:28:21;4.00;;;1.10;;
3601;SDS011;1815;50.950;6.920;2023-09-18T15:30:52;1.53;;;0.73;;
3601;SDS011;1815;50.950;6.920;2023-09-18T15:33:18;2.57;;;0.70;;
3601;SDS011;1815;50.950;6.920;2023-09-18T15:35:47;4.30;;;1.03;;
3601;SDS011;1815;50.950;6.920;2023-09-18T15:38:13;1.90;;;0.60;;